createdAt,value
2019-03-26T00:00:08.520Z,53.97
2019-03-26T00:02:37.656Z,53.92
2019-03-26T00:05:07.011Z,54.23
2019-03-26T00:07:36.139Z,54.23
2019-03-26T00:10:05.938Z,54.98
2019-03-26T00:12:35.103Z,54.98
2019-03-26T00:15:05.507Z,54.65
2019-03-26T00:17:34.708Z,54.82
2019-03-26T00:20:04.924Z,54.96
2019-03-26T00:22:34.123Z,54.86
2019-03-26T00:25:03.577Z,54.91
2019-03-26T00:27:32.784Z,54.99
2019-03-26T00:30:01.907Z,55.59
2019-03-26T00:32:30.948Z,55.96
2019-03-26T00:35:00.362Z,56.23
2019-03-26T00:37:29.599Z,56.43
2019-03-26T00:39:58.679Z,56.91
2019-03-26T00:42:27.909Z,57.72
2019-03-26T00:44:57.041Z,57.88
2019-03-26T00:47:26.236Z,58.34
2019-03-26T00:49:55.405Z,58.34
2019-03-26T00:52:24.459Z,59.64
2019-03-26T00:54:53.547Z,60.26
2019-03-26T00:57:22.637Z,60.26
2019-03-26T00:59:51.832Z,60.36
2019-03-26T01:02:21.032Z,60.91
2019-03-26T01:04:50.124Z,61.62
2019-03-26T01:07:19.387Z,63.16
2019-03-26T01:09:48.519Z,63.16
2019-03-26T01:12:17.701Z,64.17
2019-03-26T01:14:46.905Z,64.64
2019-03-26T01:17:16.035Z,65.30
2019-03-26T01:19:45.139Z,65.45
2019-03-26T01:22:14.404Z,65.73
2019-03-26T01:24:43.524Z,66.00
2019-03-26T01:27:12.778Z,66.48
2019-03-26T01:29:41.845Z,66.38
2019-03-26T01:32:11.057Z,66.47
2019-03-26T01:34:45.942Z,66.74
2019-03-26T01:37:11.076Z,66.61
2019-03-26T01:39:40.273Z,66.83
2019-03-26T01:42:09.501Z,66.70
2019-03-26T01:44:38.653Z,66.72
2019-03-26T01:47:07.874Z,66.59
2019-03-26T01:49:36.966Z,66.74
2019-03-26T01:52:06.169Z,66.68
2019-03-26T01:54:35.303Z,66.69
2019-03-26T01:57:04.553Z,66.76
2019-03-26T01:59:33.756Z,66.74
2019-03-26T02:02:02.820Z,66.73
2019-03-26T02:04:31.966Z,66.76
2019-03-26T02:07:01.115Z,66.86
2019-03-26T02:09:30.338Z,67.21
2019-03-26T02:11:59.561Z,67.20
2019-03-26T02:14:28.703Z,67.39
2019-03-26T02:16:57.984Z,67.40
2019-03-26T02:19:27.145Z,67.33
2019-03-26T02:21:56.283Z,67.80
2019-03-26T02:24:25.356Z,67.82
2019-03-26T02:26:54.588Z,67.57
2019-03-26T02:29:23.784Z,67.74
2019-03-26T02:31:52.853Z,67.53
2019-03-26T02:34:22.122Z,68.10
2019-03-26T02:36:51.320Z,68.22
2019-03-26T02:39:20.476Z,67.92
2019-03-26T02:41:49.620Z,68.04
2019-03-26T02:44:18.877Z,67.91
2019-03-26T02:46:48.052Z,67.42
2019-03-26T02:49:17.233Z,67.58
2019-03-26T02:51:46.431Z,67.64
2019-03-26T02:54:15.483Z,67.18
2019-03-26T02:56:44.720Z,67.12
2019-03-26T02:59:13.910Z,67.16
2019-03-26T03:01:43.107Z,67.20
2019-03-26T03:04:12.349Z,66.97
2019-03-26T03:06:41.541Z,66.63
2019-03-26T03:09:10.701Z,66.01
2019-03-26T03:11:39.931Z,65.40
2019-03-26T03:14:09.142Z,65.32
2019-03-26T03:16:38.272Z,62.81
2019-03-26T03:19:07.500Z,63.53
2019-03-26T03:21:36.560Z,60.21
2019-03-26T03:24:05.755Z,60.21
2019-03-26T03:26:34.917Z,58.46
2019-03-26T03:29:04.333Z,57.05
2019-03-26T03:31:33.403Z,54.95
2019-03-26T03:34:02.696Z,54.27
2019-03-26T03:36:32.430Z,53.47
2019-03-26T03:39:01.637Z,53.24
2019-03-26T03:41:30.859Z,53.43
2019-03-26T03:43:59.944Z,53.11
2019-03-26T03:46:29.153Z,52.52
2019-03-26T03:48:59.242Z,52.43
2019-03-26T03:51:29.946Z,52.16
2019-03-26T03:53:59.742Z,52.22
2019-03-26T03:56:31.599Z,52.20
2019-03-26T03:59:02.479Z,52.30
2019-03-26T04:01:31.612Z,52.47
2019-03-26T04:04:00.711Z,52.62
2019-03-26T04:06:29.902Z,52.66
2019-03-26T04:08:59.068Z,52.54
2019-03-26T04:11:28.433Z,52.83
2019-03-26T04:13:57.610Z,52.94
2019-03-26T04:16:26.807Z,52.92
2019-03-26T04:18:56.043Z,53.11
2019-03-26T04:21:25.212Z,53.27
2019-03-26T04:23:54.457Z,53.30
2019-03-26T04:26:23.615Z,53.48
2019-03-26T04:28:52.748Z,53.57
2019-03-26T04:31:21.800Z,53.63
2019-03-26T04:33:50.994Z,53.89
2019-03-26T04:36:26.147Z,53.89
2019-03-26T04:38:50.941Z,53.84
2019-03-26T04:41:20.179Z,53.89
2019-03-26T04:43:49.387Z,54.09
2019-03-26T04:46:18.533Z,53.58
2019-03-26T04:48:47.740Z,53.58
2019-03-26T04:51:16.910Z,53.57
2019-03-26T04:53:46.165Z,53.57
2019-03-26T04:56:15.380Z,53.31
2019-03-26T04:58:44.503Z,53.38
2019-03-26T05:01:13.621Z,53.54
2019-03-26T05:03:42.791Z,53.67
2019-03-26T05:06:11.980Z,53.42
2019-03-26T05:08:41.105Z,53.46
2019-03-26T05:11:10.343Z,53.28
2019-03-26T05:13:39.533Z,52.93
2019-03-26T05:16:08.663Z,53.08
2019-03-26T05:18:37.826Z,52.83
2019-03-26T05:21:07.031Z,52.64
2019-03-26T05:23:36.165Z,52.70
2019-03-26T05:26:05.483Z,52.75
2019-03-26T05:28:34.551Z,52.66
2019-03-26T05:31:03.679Z,52.56
2019-03-26T05:33:32.765Z,52.60
2019-03-26T05:36:01.888Z,52.64
2019-03-26T05:38:31.009Z,52.48
2019-03-26T05:41:00.168Z,52.50
2019-03-26T05:43:29.435Z,52.57
2019-03-26T05:45:58.632Z,52.48
2019-03-26T05:48:27.794Z,52.45
2019-03-26T05:50:56.838Z,52.33
2019-03-26T05:53:25.893Z,52.30
2019-03-26T05:55:54.987Z,52.24
2019-03-26T05:58:24.030Z,51.94
2019-03-26T06:00:53.236Z,51.77
2019-03-26T06:03:22.426Z,51.77
2019-03-26T06:05:51.561Z,51.71
2019-03-26T06:08:20.687Z,51.50
2019-03-26T06:10:49.825Z,51.50
2019-03-26T06:13:19.075Z,51.50
2019-03-26T06:15:48.213Z,51.27
2019-03-26T06:18:17.371Z,50.88
2019-03-26T06:20:46.576Z,50.99
2019-03-26T06:23:15.782Z,50.73
2019-03-26T06:25:44.866Z,50.51
2019-03-26T06:28:14.052Z,50.48
2019-03-26T06:30:43.230Z,50.08
2019-03-26T06:33:12.490Z,50.01
2019-03-26T06:35:41.680Z,49.55
2019-03-26T06:38:10.805Z,49.33
2019-03-26T06:40:40.059Z,48.38
2019-03-26T06:43:09.258Z,48.38
2019-03-26T06:45:38.453Z,48.18
2019-03-26T06:48:07.692Z,48.09
2019-03-26T06:50:36.868Z,48.06
2019-03-26T06:53:06.070Z,48.25
2019-03-26T06:55:35.337Z,48.01
2019-03-26T06:58:04.479Z,48.46
2019-03-26T07:00:34.872Z,48.73
2019-03-26T07:03:06.311Z,48.92
2019-03-26T07:05:35.516Z,49.14
2019-03-26T07:08:04.993Z,48.96
2019-03-26T07:10:34.228Z,48.91
2019-03-26T07:13:03.349Z,49.11
2019-03-26T07:15:32.545Z,48.88
2019-03-26T07:18:01.717Z,48.61
2019-03-26T07:20:30.911Z,48.44
2019-03-26T07:23:00.149Z,48.04
2019-03-26T07:25:29.390Z,48.07
2019-03-26T07:27:58.699Z,47.99
2019-03-26T07:30:41.740Z,47.38
2019-03-26T07:33:11.243Z,47.05
2019-03-26T07:35:41.164Z,46.38
2019-03-26T07:38:10.399Z,46.28
2019-03-26T07:40:39.601Z,45.62
2019-03-26T07:43:08.891Z,45.54
2019-03-26T07:45:38.222Z,45.13
2019-03-26T07:48:07.423Z,44.25
2019-03-26T07:50:36.630Z,43.91
2019-03-26T07:53:05.878Z,43.90
2019-03-26T07:55:35.081Z,42.84
2019-03-26T07:58:04.286Z,42.52
2019-03-26T08:00:35.320Z,42.27
2019-03-26T08:03:05.144Z,40.91
2019-03-26T08:05:34.338Z,40.26
2019-03-26T08:08:03.585Z,39.77
2019-03-26T08:10:32.784Z,39.28
2019-03-26T08:13:02.006Z,38.52
2019-03-26T08:15:31.280Z,38.11
2019-03-26T08:18:00.407Z,38.00
2019-03-26T08:20:29.600Z,37.94
2019-03-26T08:22:58.840Z,37.31
2019-03-26T08:25:28.183Z,36.92
2019-03-26T08:27:57.344Z,36.97
2019-03-26T08:30:26.490Z,37.13
2019-03-26T08:32:55.643Z,37.30
2019-03-26T08:35:24.845Z,38.55
2019-03-26T08:37:54.098Z,38.89
2019-03-26T08:40:23.610Z,38.64
2019-03-26T08:42:53.080Z,38.71
2019-03-26T08:45:22.424Z,38.98
2019-03-26T08:47:51.639Z,39.42
2019-03-26T08:50:20.855Z,39.18
2019-03-26T08:52:50.101Z,39.65
2019-03-26T08:55:19.389Z,39.49
2019-03-26T08:57:48.599Z,39.76
2019-03-26T09:00:18.142Z,40.71
2019-03-26T09:02:47.349Z,41.48
2019-03-26T09:05:16.667Z,41.22
2019-03-26T09:07:45.922Z,40.80
2019-03-26T09:10:15.559Z,40.58
2019-03-26T09:12:44.784Z,39.81
2019-03-26T09:15:14.793Z,40.13
2019-03-26T09:17:44.859Z,40.55
2019-03-26T09:20:15.185Z,40.31
2019-03-26T09:22:44.364Z,39.18
2019-03-26T09:25:14.065Z,39.01
2019-03-26T09:27:43.364Z,39.29
2019-03-26T09:30:13.207Z,39.46
2019-03-26T09:32:43.855Z,39.26
2019-03-26T09:35:13.555Z,38.01
2019-03-26T09:37:42.734Z,37.18
2019-03-26T09:40:12.474Z,36.56
2019-03-26T09:42:41.853Z,35.63
2019-03-26T09:45:11.899Z,34.84
2019-03-26T09:47:41.158Z,34.52
2019-03-26T09:50:11.868Z,34.56
2019-03-26T09:52:41.145Z,34.47
2019-03-26T09:55:10.847Z,34.23
2019-03-26T09:57:40.045Z,34.04
2019-03-26T10:00:10.996Z,34.06
2019-03-26T10:02:43.087Z,33.80
2019-03-26T10:05:11.440Z,34.13
2019-03-26T10:07:40.812Z,34.07
2019-03-26T10:10:10.971Z,34.05
2019-03-26T10:12:40.166Z,33.73
2019-03-26T10:15:10.042Z,33.43
2019-03-26T10:17:39.302Z,33.83
2019-03-26T10:20:08.819Z,33.59
2019-03-26T10:22:40.984Z,33.51
2019-03-26T10:25:11.516Z,33.78
2019-03-26T10:27:41.054Z,34.16
2019-03-26T10:30:13.049Z,33.88
2019-03-26T10:32:42.314Z,34.24
2019-03-26T10:35:12.052Z,33.88
2019-03-26T10:37:41.330Z,34.44
2019-03-26T10:40:12.736Z,34.63
2019-03-26T10:42:41.990Z,34.68
2019-03-26T10:45:11.722Z,34.18
2019-03-26T10:47:40.929Z,33.94
2019-03-26T10:50:10.253Z,34.49
2019-03-26T10:52:39.575Z,34.17
2019-03-26T10:55:08.986Z,34.02
2019-03-26T10:57:38.219Z,34.34
2019-03-26T11:00:08.148Z,33.74
2019-03-26T11:02:37.380Z,33.05
2019-03-26T11:05:07.593Z,32.67
2019-03-26T11:07:36.902Z,31.94
2019-03-26T11:10:07.953Z,31.86
2019-03-26T11:12:37.219Z,31.19
2019-03-26T11:15:07.678Z,30.78
2019-03-26T11:17:37.021Z,31.74
2019-03-26T11:20:08.149Z,31.84
2019-03-26T11:22:37.385Z,31.63
2019-03-26T11:25:11.859Z,31.06
2019-03-26T11:27:39.680Z,30.31
2019-03-26T11:30:09.717Z,29.95
2019-03-26T11:32:38.940Z,30.48
2019-03-26T11:35:09.938Z,30.62
2019-03-26T11:37:39.894Z,30.87
2019-03-26T11:40:10.019Z,30.79
2019-03-26T11:42:39.238Z,31.16
2019-03-26T11:45:10.752Z,30.40
2019-03-26T11:47:40.769Z,31.02
2019-03-26T11:50:10.756Z,31.39
2019-03-26T11:52:40.629Z,30.73
2019-03-26T11:55:11.332Z,30.25
2019-03-26T11:57:40.546Z,29.59
2019-03-26T12:00:12.917Z,30.22
2019-03-26T12:02:42.063Z,30.57
2019-03-26T12:05:11.426Z,30.00
2019-03-26T12:07:42.951Z,30.09
2019-03-26T12:10:11.806Z,29.20
2019-03-26T12:12:41.018Z,30.24
2019-03-26T12:15:10.619Z,29.70
2019-03-26T12:17:39.831Z,29.24
2019-03-26T12:20:09.893Z,29.21
2019-03-26T12:22:39.017Z,29.44
2019-03-26T12:25:08.778Z,29.15
2019-03-26T12:27:37.992Z,28.88
2019-03-26T12:30:08.587Z,28.98
2019-03-26T12:32:40.739Z,28.87
2019-03-26T12:35:11.396Z,29.10
2019-03-26T12:37:40.543Z,29.43
2019-03-26T12:40:10.062Z,28.40
2019-03-26T12:42:39.457Z,27.90
2019-03-26T12:45:09.100Z,28.28
2019-03-26T12:47:38.223Z,27.69
2019-03-26T12:50:08.659Z,28.20
2019-03-26T12:52:37.812Z,28.22
2019-03-26T12:55:07.291Z,27.73
2019-03-26T12:57:36.588Z,28.16
2019-03-26T13:00:07.514Z,29.63
2019-03-26T13:02:36.720Z,30.65
2019-03-26T13:05:09.159Z,30.01
2019-03-26T13:07:38.371Z,29.81
2019-03-26T13:10:13.840Z,29.43
2019-03-26T13:12:40.685Z,29.20
2019-03-26T13:15:09.894Z,29.60
2019-03-26T13:17:39.101Z,30.23
2019-03-26T13:20:08.637Z,29.77
2019-03-26T13:22:37.964Z,29.10
2019-03-26T13:25:08.866Z,29.38
2019-03-26T13:27:38.023Z,28.14
2019-03-26T13:30:09.523Z,28.56
2019-03-26T13:32:38.737Z,28.74
2019-03-26T13:35:08.779Z,28.69
2019-03-26T13:37:38.001Z,28.22
2019-03-26T13:40:07.511Z,28.93
2019-03-26T13:42:36.741Z,28.17
2019-03-26T13:45:08.241Z,28.89
2019-03-26T13:47:37.537Z,28.69
2019-03-26T13:50:08.420Z,28.55
2019-03-26T13:52:37.830Z,30.05
2019-03-26T13:55:08.930Z,29.86
2019-03-26T13:57:38.108Z,29.56
2019-03-26T14:00:08.982Z,30.88
2019-03-26T14:02:38.197Z,29.90
2019-03-26T14:05:12.995Z,29.76
2019-03-26T14:07:42.090Z,29.21
2019-03-26T14:10:11.495Z,28.83
2019-03-26T14:12:40.595Z,27.66
2019-03-26T14:15:10.423Z,27.54
2019-03-26T14:17:39.712Z,28.54
2019-03-26T14:20:09.392Z,29.29
2019-03-26T14:22:38.537Z,29.41
2019-03-26T14:25:08.147Z,29.96
2019-03-26T14:27:37.409Z,30.26
2019-03-26T14:30:08.908Z,30.23
2019-03-26T14:32:38.049Z,30.38
2019-03-26T14:35:07.882Z,30.95
2019-03-26T14:37:50.286Z,31.20
2019-03-26T14:40:08.352Z,31.37
2019-03-26T14:42:37.531Z,31.43
2019-03-26T14:45:08.086Z,31.81
2019-03-26T14:47:37.295Z,32.03
2019-03-26T14:50:07.937Z,32.23
2019-03-26T14:52:37.006Z,32.44
2019-03-26T14:55:08.206Z,32.54
2019-03-26T14:57:37.452Z,33.01
2019-03-26T15:00:09.985Z,31.89
2019-03-26T15:02:39.288Z,31.12
2019-03-26T15:05:08.795Z,30.39
2019-03-26T15:07:37.849Z,30.08
2019-03-26T15:10:07.851Z,30.33
2019-03-26T15:12:37.022Z,29.68
2019-03-26T15:15:06.712Z,28.46
2019-03-26T15:17:35.924Z,27.91
2019-03-26T15:20:07.118Z,27.48
2019-03-26T15:22:36.266Z,27.28
2019-03-26T15:25:06.776Z,27.34
2019-03-26T15:27:36.024Z,26.86
2019-03-26T15:30:09.458Z,27.56
2019-03-26T15:32:38.662Z,27.04
2019-03-26T15:35:08.508Z,26.72
2019-03-26T15:37:37.708Z,27.13
2019-03-26T15:40:08.783Z,26.38
2019-03-26T15:42:38.217Z,26.29
2019-03-26T15:45:09.285Z,25.88
2019-03-26T15:47:38.500Z,25.60
2019-03-26T15:50:08.553Z,26.00
2019-03-26T15:52:37.917Z,25.75
2019-03-26T15:55:09.023Z,26.04
2019-03-26T15:57:38.265Z,27.67
2019-03-26T16:00:09.536Z,28.31
2019-03-26T16:02:38.694Z,29.16
2019-03-26T16:05:08.502Z,29.64
2019-03-26T16:07:37.651Z,30.10
2019-03-26T16:10:08.060Z,30.36
2019-03-26T16:12:41.348Z,30.43
2019-03-26T16:15:08.264Z,30.90
2019-03-26T16:17:37.750Z,30.92
2019-03-26T16:20:08.563Z,30.20
2019-03-26T16:22:37.785Z,30.34
2019-03-26T16:25:07.732Z,30.31
2019-03-26T16:27:36.914Z,30.90
2019-03-26T16:30:07.818Z,31.40
2019-03-26T16:32:37.071Z,31.94
2019-03-26T16:35:06.783Z,32.11
2019-03-26T16:37:36.004Z,32.34
2019-03-26T16:40:06.978Z,32.55
2019-03-26T16:42:36.207Z,32.77
2019-03-26T16:45:07.108Z,32.80
2019-03-26T16:47:36.277Z,32.52
2019-03-26T16:50:08.348Z,32.58
2019-03-26T16:52:37.727Z,32.68
2019-03-26T16:55:07.395Z,32.57
2019-03-26T16:57:36.686Z,32.99
2019-03-26T17:00:08.483Z,33.22
2019-03-26T17:02:37.727Z,33.20
2019-03-26T17:05:08.247Z,33.63
2019-03-26T17:07:37.446Z,33.64
2019-03-26T17:10:08.267Z,33.62
2019-03-26T17:12:38.164Z,33.87
2019-03-26T17:15:08.467Z,33.82
2019-03-26T17:17:37.813Z,34.00
2019-03-26T17:20:07.741Z,34.17
2019-03-26T17:22:36.946Z,34.06
2019-03-26T17:25:09.485Z,34.27
2019-03-26T17:27:38.689Z,34.33
2019-03-26T17:30:08.605Z,34.36
2019-03-26T17:32:37.859Z,34.61
2019-03-26T17:35:07.834Z,34.72
2019-03-26T17:37:37.222Z,34.97
2019-03-26T17:40:06.583Z,34.96
2019-03-26T17:42:35.801Z,35.23
2019-03-26T17:45:06.406Z,34.97
2019-03-26T17:47:35.661Z,35.13
2019-03-26T17:50:07.284Z,35.08
2019-03-26T17:52:36.454Z,35.23
2019-03-26T17:55:08.001Z,35.24
2019-03-26T17:57:37.253Z,35.24
2019-03-26T18:00:12.634Z,35.28
2019-03-26T18:02:41.896Z,35.56
2019-03-26T18:05:28.615Z,35.34
2019-03-26T18:07:58.066Z,35.36
2019-03-26T18:10:27.276Z,35.20
2019-03-26T18:12:56.489Z,35.12
2019-03-26T18:15:25.750Z,35.29
2019-03-26T18:17:54.896Z,35.12
2019-03-26T18:20:32.577Z,35.10
2019-03-26T18:22:54.919Z,35.20
2019-03-26T18:25:24.145Z,34.95
2019-03-26T18:27:53.386Z,35.34
2019-03-26T18:30:22.955Z,35.58
2019-03-26T18:32:52.187Z,35.50
2019-03-26T18:35:21.417Z,35.52
2019-03-26T18:37:50.687Z,36.02
2019-03-26T18:40:19.847Z,36.02
2019-03-26T18:42:49.058Z,36.24
2019-03-26T18:45:19.767Z,36.15
2019-03-26T18:47:48.985Z,36.17
2019-03-26T18:50:18.522Z,36.15
2019-03-26T18:52:47.677Z,36.21
2019-03-26T18:55:17.092Z,35.93
2019-03-26T18:57:46.262Z,36.21
2019-03-26T19:00:21.315Z,36.13
2019-03-26T19:02:50.526Z,35.72
2019-03-26T19:05:19.693Z,35.70
2019-03-26T19:07:48.870Z,35.84
2019-03-26T19:10:26.438Z,35.82
2019-03-26T19:12:57.272Z,35.89
2019-03-26T19:15:26.749Z,35.98
2019-03-26T19:17:55.970Z,36.06
2019-03-26T19:20:25.375Z,36.14
2019-03-26T19:22:54.531Z,36.08
2019-03-26T19:25:23.764Z,36.00
2019-03-26T19:27:52.975Z,36.00
2019-03-26T19:30:22.289Z,36.11
2019-03-26T19:32:51.509Z,35.59
2019-03-26T19:35:20.751Z,35.78
2019-03-26T19:37:49.844Z,35.60
2019-03-26T19:40:19.199Z,35.48
2019-03-26T19:42:48.451Z,35.56
2019-03-26T19:45:17.870Z,35.71
2019-03-26T19:47:47.080Z,35.86
2019-03-26T19:50:17.428Z,36.17
2019-03-26T19:52:46.585Z,36.08
2019-03-26T19:55:15.794Z,36.33
2019-03-26T19:57:45.182Z,36.64
2019-03-26T20:00:18.118Z,36.55
2019-03-26T20:02:47.331Z,36.98
2019-03-26T20:05:16.623Z,37.26
2019-03-26T20:07:45.769Z,37.54
2019-03-26T20:10:15.568Z,37.89
2019-03-26T20:12:44.803Z,38.06
2019-03-26T20:15:14.894Z,38.17
2019-03-26T20:17:44.227Z,38.10
2019-03-26T20:20:15.323Z,38.53
2019-03-26T20:22:44.466Z,38.53
2019-03-26T20:25:14.441Z,38.36
2019-03-26T20:27:43.708Z,38.34
2019-03-26T20:30:13.348Z,38.53
2019-03-26T20:32:42.562Z,38.73
2019-03-26T20:35:12.313Z,38.75
2019-03-26T20:37:41.468Z,38.92
2019-03-26T20:40:11.668Z,39.10
2019-03-26T20:42:40.828Z,38.71
2019-03-26T20:45:14.387Z,38.67
2019-03-26T20:47:43.183Z,38.64
2019-03-26T20:50:13.020Z,38.60
2019-03-26T20:52:42.250Z,38.47
2019-03-26T20:55:12.859Z,38.43
2019-03-26T20:57:42.102Z,38.34
2019-03-26T21:00:13.272Z,38.18
2019-03-26T21:02:42.605Z,38.22
2019-03-26T21:05:12.273Z,38.46
2019-03-26T21:07:41.409Z,38.42
2019-03-26T21:10:11.190Z,38.27
2019-03-26T21:12:40.464Z,38.50
2019-03-26T21:15:10.522Z,38.49
2019-03-26T21:17:39.881Z,38.71
2019-03-26T21:20:10.514Z,38.81
2019-03-26T21:22:39.863Z,38.75
2019-03-26T21:25:09.657Z,38.78
2019-03-26T21:27:38.917Z,38.90
2019-03-26T21:30:15.385Z,39.11
2019-03-26T21:32:41.684Z,39.01
2019-03-26T21:35:11.748Z,39.15
2019-03-26T21:37:40.957Z,39.20
2019-03-26T21:40:11.152Z,39.33
2019-03-26T21:42:40.509Z,39.56
2019-03-26T21:45:12.081Z,39.40
2019-03-26T21:47:41.274Z,39.45
2019-03-26T21:50:10.629Z,39.63
2019-03-26T21:52:40.055Z,39.80
2019-03-26T21:55:13.061Z,39.61
2019-03-26T21:57:40.864Z,39.82
2019-03-26T22:00:11.033Z,39.64
2019-03-26T22:02:40.232Z,39.81
2019-03-26T22:05:11.389Z,39.89
2019-03-26T22:07:40.606Z,39.94
2019-03-26T22:10:10.379Z,40.28
2019-03-26T22:12:39.612Z,40.28
2019-03-26T22:15:10.099Z,40.00
2019-03-26T22:17:39.300Z,39.96
2019-03-26T22:20:09.432Z,40.29
2019-03-26T22:22:38.565Z,40.49
2019-03-26T22:25:08.868Z,40.34
2019-03-26T22:27:38.048Z,40.66
2019-03-26T22:30:12.949Z,40.90
2019-03-26T22:32:42.241Z,40.90
2019-03-26T22:35:11.980Z,41.12
2019-03-26T22:37:41.202Z,41.09
2019-03-26T22:40:10.799Z,41.38
2019-03-26T22:42:39.975Z,41.38
2019-03-26T22:45:10.194Z,41.44
2019-03-26T22:47:42.403Z,41.48
2019-03-26T22:50:12.567Z,41.58
2019-03-26T22:52:41.784Z,41.87
2019-03-26T22:55:11.892Z,42.28
2019-03-26T22:57:41.158Z,42.22
2019-03-26T23:00:18.553Z,42.14
2019-03-26T23:02:47.788Z,42.18
2019-03-26T23:05:17.519Z,42.23
2019-03-26T23:07:46.715Z,42.47
2019-03-26T23:10:17.863Z,42.35
2019-03-26T23:12:47.278Z,42.53
2019-03-26T23:15:23.061Z,42.69
2019-03-26T23:17:52.454Z,42.69
2019-03-26T23:20:21.722Z,42.59
2019-03-26T23:22:50.982Z,42.81
2019-03-26T23:25:20.311Z,42.84
2019-03-26T23:27:49.674Z,42.72
2019-03-26T23:30:19.284Z,42.77
2019-03-26T23:32:48.524Z,42.56
2019-03-26T23:35:17.743Z,42.62
2019-03-26T23:37:46.905Z,42.70
2019-03-26T23:40:16.385Z,42.88
2019-03-26T23:42:45.502Z,42.83
2019-03-26T23:45:15.112Z,42.95
2019-03-26T23:47:44.280Z,43.11
2019-03-26T23:50:13.991Z,43.20
2019-03-26T23:52:43.185Z,43.39
2019-03-26T23:55:12.926Z,43.34
2019-03-26T23:57:42.076Z,43.42
